createdAt,value
2019-02-15T00:01:43.079Z,21.33
2019-02-15T00:06:46.562Z,21.32
2019-02-15T00:11:50.050Z,21.32
2019-02-15T00:16:53.524Z,21.32
2019-02-15T00:21:57.015Z,21.30
2019-02-15T00:27:00.513Z,21.30
2019-02-15T00:32:03.998Z,21.29
2019-02-15T00:37:07.488Z,21.28
2019-02-15T00:42:10.966Z,21.27
2019-02-15T00:47:21.523Z,21.28
2019-02-15T00:52:26.651Z,21.26
2019-02-15T00:57:40.799Z,21.25
2019-02-15T01:02:48.893Z,21.25
2019-02-15T01:08:06.035Z,21.23
2019-02-15T01:13:11.145Z,21.24
2019-02-15T01:18:14.623Z,21.23
2019-02-15T01:23:18.090Z,21.22
2019-02-15T01:28:23.203Z,21.22
2019-02-15T01:33:44.557Z,21.21
2019-02-15T01:38:58.311Z,21.21
2019-02-15T01:44:03.424Z,21.21
2019-02-15T01:49:06.899Z,21.20
2019-02-15T01:54:10.363Z,21.19
2019-02-15T01:59:13.834Z,21.19
2019-02-15T02:04:17.376Z,21.18
2019-02-15T02:09:21.322Z,21.18
2019-02-15T02:14:24.794Z,21.17
2019-02-15T02:19:28.275Z,21.16
2019-02-15T02:24:31.746Z,21.16
2019-02-15T02:29:35.210Z,21.15
2019-02-15T02:34:38.678Z,21.16
2019-02-15T02:39:42.146Z,21.15
2019-02-15T02:44:45.624Z,21.14
2019-02-15T02:49:49.091Z,21.14
2019-02-15T02:54:52.569Z,21.13
2019-02-15T02:59:56.039Z,21.13
2019-02-15T03:04:59.519Z,21.13
2019-02-15T03:10:03.349Z,21.12
2019-02-15T03:15:07.870Z,21.12
2019-02-15T03:20:11.332Z,21.10
2019-02-15T03:25:14.795Z,21.11
2019-02-15T03:30:18.267Z,21.10
2019-02-15T03:35:21.730Z,21.10
2019-02-15T03:40:29.833Z,21.09
2019-02-15T03:45:33.263Z,21.09
2019-02-15T03:50:36.750Z,21.08
2019-02-15T03:55:40.206Z,21.07
2019-02-15T04:00:43.676Z,21.08
2019-02-15T04:05:47.150Z,21.07
2019-02-15T04:10:50.627Z,21.07
2019-02-15T04:15:54.090Z,21.06
2019-02-15T04:20:57.565Z,21.06
2019-02-15T04:26:01.040Z,21.06
2019-02-15T04:31:04.517Z,21.05
2019-02-15T04:36:07.993Z,21.04
2019-02-15T04:41:11.454Z,21.04
2019-02-15T04:46:14.922Z,21.05
2019-02-15T04:51:18.447Z,21.07
2019-02-15T04:56:21.873Z,21.06
2019-02-15T05:01:25.338Z,21.06
2019-02-15T05:06:28.810Z,21.05
2019-02-15T05:11:32.278Z,21.05
2019-02-15T05:16:35.753Z,21.04
2019-02-15T05:21:39.222Z,21.05
2019-02-15T05:26:42.697Z,21.04
2019-02-15T05:31:46.173Z,21.03
2019-02-15T05:36:49.646Z,21.03
2019-02-15T05:41:53.155Z,21.04
2019-02-15T05:46:56.590Z,21.03
2019-02-15T05:52:00.065Z,21.02
2019-02-15T05:57:03.542Z,21.02
2019-02-15T06:02:07.012Z,21.01
2019-02-15T06:07:10.478Z,21.02
2019-02-15T06:12:13.950Z,21.01
2019-02-15T06:17:17.425Z,21.00
2019-02-15T06:22:20.898Z,21.00
2019-02-15T06:27:24.371Z,21.00
2019-02-15T06:32:27.846Z,20.99
2019-02-15T06:37:31.317Z,20.97
2019-02-15T06:42:34.783Z,20.97
2019-02-15T06:47:38.258Z,20.97
2019-02-15T06:52:41.721Z,20.96
2019-02-15T06:57:45.188Z,20.96
2019-02-15T07:02:56.127Z,20.96
2019-02-15T07:07:59.601Z,20.87
2019-02-15T07:13:03.075Z,20.87
2019-02-15T07:18:06.552Z,20.95
2019-02-15T07:23:10.027Z,20.95
2019-02-15T07:28:13.497Z,20.99
2019-02-15T07:33:16.976Z,21.02
2019-02-15T07:38:20.440Z,21.07
2019-02-15T07:43:23.913Z,21.10
2019-02-15T07:48:27.388Z,21.11
2019-02-15T07:53:30.863Z,20.77
2019-02-15T07:58:34.332Z,20.23
2019-02-15T08:03:37.804Z,19.87
2019-02-15T08:08:41.266Z,19.57
2019-02-15T08:13:44.736Z,19.18
2019-02-15T08:18:48.216Z,19.03
2019-02-15T08:23:51.690Z,19.03
2019-02-15T08:28:55.160Z,19.24
2019-02-15T08:33:58.641Z,19.42
2019-02-15T08:39:02.116Z,19.60
2019-02-15T08:44:05.593Z,19.74
2019-02-15T08:49:09.067Z,19.83
2019-02-15T08:54:12.538Z,19.92
2019-02-15T08:59:16.011Z,19.99
2019-02-15T09:04:19.482Z,20.05
2019-02-15T09:09:22.952Z,20.11
2019-02-15T09:14:26.419Z,20.17
2019-02-15T09:19:29.892Z,20.21
2019-02-15T09:24:33.358Z,20.26
2019-02-15T09:29:36.830Z,20.31
2019-02-15T09:34:40.310Z,20.35
2019-02-15T09:39:43.783Z,20.39
2019-02-15T09:44:47.254Z,20.42
2019-02-15T09:49:50.727Z,20.48
2019-02-15T09:54:54.205Z,20.52
2019-02-15T09:59:57.666Z,20.57
2019-02-15T10:05:01.144Z,20.60
2019-02-15T10:10:09.013Z,20.63
2019-02-15T10:15:12.710Z,20.66
2019-02-15T10:20:16.186Z,20.68
2019-02-15T10:25:19.656Z,20.68
2019-02-15T10:30:23.130Z,20.70
2019-02-15T10:35:26.607Z,20.71
2019-02-15T10:40:30.080Z,20.73
2019-02-15T10:45:33.551Z,20.75
2019-02-15T10:50:37.022Z,20.75
2019-02-15T10:55:40.493Z,20.74
2019-02-15T11:00:43.970Z,20.78
2019-02-15T11:05:47.438Z,20.80
2019-02-15T11:10:50.909Z,20.82
2019-02-15T11:15:54.378Z,20.84
2019-02-15T11:20:57.851Z,20.84
2019-02-15T11:26:01.335Z,20.86
2019-02-15T11:31:04.806Z,20.86
2019-02-15T11:36:08.285Z,20.87
2019-02-15T11:41:11.763Z,20.87
2019-02-15T11:46:15.223Z,20.89
2019-02-15T11:51:18.703Z,20.90
2019-02-15T11:56:22.173Z,20.91
2019-02-15T12:01:25.642Z,20.93
2019-02-15T12:06:29.120Z,20.94
2019-02-15T12:11:32.767Z,20.95
2019-02-15T12:16:38.130Z,20.97
2019-02-15T12:21:41.434Z,20.97
2019-02-15T12:26:44.908Z,21.00
2019-02-15T12:31:48.382Z,21.00
2019-02-15T12:36:51.851Z,21.02
2019-02-15T12:41:55.325Z,21.03
2019-02-15T12:46:58.786Z,21.04
2019-02-15T12:52:02.259Z,21.07
2019-02-15T12:57:05.727Z,21.07
2019-02-15T13:02:09.219Z,21.13
2019-02-15T13:07:12.662Z,21.21
2019-02-15T13:12:16.134Z,21.24
2019-02-15T13:17:24.632Z,21.21
2019-02-15T13:22:24.803Z,21.25
2019-02-15T13:27:28.275Z,21.27
2019-02-15T13:32:31.744Z,21.29
2019-02-15T13:37:44.583Z,21.34
2019-02-15T13:42:48.058Z,21.33
2019-02-15T13:47:51.538Z,21.33
2019-02-15T13:52:55.014Z,21.35
2019-02-15T13:57:58.491Z,21.38
2019-02-15T14:03:01.970Z,21.39
2019-02-15T14:08:05.444Z,21.39
2019-02-15T14:13:08.924Z,21.40
2019-02-15T14:18:12.407Z,21.41
2019-02-15T14:23:15.903Z,21.41
2019-02-15T14:28:19.403Z,21.41
2019-02-15T14:33:22.908Z,21.41
2019-02-15T14:38:26.398Z,21.43
2019-02-15T14:43:29.885Z,21.44
2019-02-15T14:48:33.374Z,21.45
2019-02-15T14:53:36.866Z,21.45
2019-02-15T14:58:40.381Z,21.45
2019-02-15T15:03:43.866Z,21.47
2019-02-15T15:08:47.349Z,21.48
2019-02-15T15:13:50.830Z,21.47
2019-02-15T15:18:54.308Z,21.46
2019-02-15T15:23:57.786Z,21.44
2019-02-15T15:29:03.296Z,21.41
2019-02-15T15:34:06.772Z,21.41
2019-02-15T15:39:13.146Z,21.40
2019-02-15T15:44:16.650Z,21.40
2019-02-15T15:49:20.137Z,21.46
2019-02-15T15:54:23.632Z,21.47
2019-02-15T15:59:27.131Z,21.47
2019-02-15T16:04:30.627Z,21.49
2019-02-15T16:09:34.124Z,21.51
2019-02-15T16:14:37.617Z,21.52
2019-02-15T16:19:49.417Z,21.54
2019-02-15T16:24:46.318Z,21.47
2019-02-15T16:29:49.811Z,21.47
2019-02-15T16:34:53.286Z,21.52
2019-02-15T16:39:56.764Z,21.52
2019-02-15T16:45:00.399Z,21.52
2019-02-15T16:50:03.897Z,21.52
2019-02-15T16:55:12.871Z,21.51
2019-02-15T17:00:14.958Z,21.51
2019-02-15T17:05:18.431Z,21.50
2019-02-15T17:10:21.983Z,21.50
2019-02-15T17:15:25.465Z,21.51
2019-02-15T17:20:28.944Z,21.53
2019-02-15T17:25:32.418Z,21.53
2019-02-15T17:30:35.898Z,21.53
2019-02-15T17:35:39.370Z,21.54
2019-02-15T17:40:42.851Z,21.55
2019-02-15T17:45:46.322Z,21.56
2019-02-15T17:50:49.803Z,21.56
2019-02-15T17:55:53.287Z,21.58
2019-02-15T18:00:57.140Z,21.58
2019-02-15T18:06:00.616Z,21.56
2019-02-15T18:11:04.085Z,21.57
2019-02-15T18:16:07.570Z,21.58
2019-02-15T18:21:11.048Z,21.58
2019-02-15T18:26:14.531Z,21.57
2019-02-15T18:31:18.007Z,21.58
2019-02-15T18:36:21.482Z,21.58
2019-02-15T18:41:24.958Z,21.58
2019-02-15T18:46:28.437Z,21.58
2019-02-15T18:51:31.920Z,21.58
2019-02-15T18:56:35.393Z,21.59
2019-02-15T19:01:38.900Z,21.58
2019-02-15T19:06:42.378Z,21.59
2019-02-15T19:11:45.854Z,21.59
2019-02-15T19:16:49.331Z,21.57
2019-02-15T19:21:52.807Z,21.58
2019-02-15T19:26:56.283Z,21.58
2019-02-15T19:31:59.764Z,21.58
2019-02-15T19:37:03.238Z,21.57
2019-02-15T19:42:09.971Z,21.59
2019-02-15T19:47:13.473Z,21.57
2019-02-15T19:52:16.963Z,21.58
2019-02-15T19:57:20.456Z,21.59
2019-02-15T20:02:23.948Z,21.57
2019-02-15T20:07:27.443Z,21.57
2019-02-15T20:12:30.934Z,21.58
2019-02-15T20:17:34.427Z,21.58
2019-02-15T20:22:37.914Z,21.58
2019-02-15T20:27:41.408Z,21.58
2019-02-15T20:32:44.900Z,21.57
2019-02-15T20:37:48.406Z,21.56
2019-02-15T20:42:51.907Z,21.56
2019-02-15T20:47:55.402Z,21.55
2019-02-15T20:52:58.898Z,21.54
2019-02-15T20:58:02.391Z,21.54
2019-02-15T21:03:05.882Z,21.51
2019-02-15T21:08:09.376Z,21.51
2019-02-15T21:13:20.204Z,21.49
2019-02-15T21:18:18.084Z,21.48
2019-02-15T21:23:21.580Z,21.47
2019-02-15T21:28:25.068Z,21.45
2019-02-15T21:33:28.559Z,21.44
2019-02-15T21:38:32.056Z,21.44
2019-02-15T21:43:35.556Z,21.42
2019-02-15T21:48:39.050Z,21.41
2019-02-15T21:53:42.545Z,21.40
2019-02-15T21:58:46.039Z,21.39
2019-02-15T22:03:49.534Z,21.39
2019-02-15T22:08:53.018Z,21.38
2019-02-15T22:13:56.507Z,21.34
2019-02-15T22:19:00.002Z,21.30
2019-02-15T22:24:03.494Z,21.29
2019-02-15T22:29:06.986Z,21.28
2019-02-15T22:34:10.484Z,21.25
2019-02-15T22:39:13.979Z,21.24
2019-02-15T22:44:17.466Z,21.22
2019-02-15T22:49:21.021Z,21.21
2019-02-15T22:54:24.539Z,21.20
2019-02-15T22:59:28.029Z,21.19
2019-02-15T23:04:31.523Z,21.18
2019-02-15T23:09:35.093Z,21.17
2019-02-15T23:14:38.592Z,21.15
2019-02-15T23:19:42.082Z,21.15
2019-02-15T23:24:45.570Z,21.13
2019-02-15T23:29:49.058Z,21.14
2019-02-15T23:34:52.553Z,21.12
2019-02-15T23:39:56.051Z,21.11
2019-02-15T23:44:59.541Z,21.10
2019-02-15T23:50:03.293Z,21.09
2019-02-15T23:55:06.951Z,21.08
